KBLU

Blue Canyon - Nyack Airport

Emigrant Gap, California, USA
METAR KBLU 182052Z AUTO 21007KT 170V250 10SM CLR 27/01 A3033 RMK AO2 SLP160 T02720006 58005
Observed Flight Rules
Aug-18 @ 20:52 UTC (an hour ago) Visual Flight Rules
Wind Visibility Clouds
210° at 7 knots 10 miles
  • Clear skies
Temperatures Readings
Current 27°C / 81°F
Dewpoint 1°C / 34°F
Humidity 18%
Altimeter 30.33" Hg
Pressure 1016 hPa
Elevation 1609
METAR KBLU 182052Z AUTO 21007KT 170V250 10SM CLR 27/01 A3033 RMK AO2 SLP160 T02720006 58005
Observed Flight Rules
Aug-18 @ 20:52 UTC
(an hour ago)
VFR
Wind Visibility
210° at 7 knots 10 miles
Clouds
  • Clear skies
Temperature Dewpoint
27°C / 81°F 1°C / 34°F
Humidity Altimeter Pressure
18% 30.33" Hg 1016 hPa